Terminal Aerodrome Forecast
Issued by NWS Paducah, KY

Home | Current Version | Previous Version | Text Only | Print | Product List | Glossary On
Versions: 1 2 3 4 5 6 7 8 9 10 11 12 13 14 15 16 17 18 19
000
FTUS43 KPAH 151100
TAFPAH
TAF
KPAH 151120Z 1512/1612 00000KT P6SM SCT060
     FM151430 22004KT P6SM BKN070 BKN200
     FM160600 34005KT P6SM SCT008 OVC012=

USA.gov is the U.S. government's official web portal to all federal, state and local government web resources and services.